»·PEaware :: BOE561 KPSP-KBUR

BOE561 :: KPSP-KBUR

FLIGHT INFORMATION

Flight Status: Arrived
Operator:
Boeing Commercial Airplane Group
More flights by this operator :: More flights under this callsign
Pilot: Ben F. (2808)
Aircraft: BOEING 737-200
(B732)
More flights by this aircraft type
Origin: KPSP Palm Springs Intl
United States
Destination: KBUR Bob Hope-Burbank
United States
More flights between these airports :: More routes between these airports
Route: +CATH1 PSP V388 PDZ V197 POM V264 ITSME V186 VNY
File this flight plan on PilotEdge
Remarks: PSPN2
Altitude:
(Current/Filed)
12,000ft
Speed:
(Current/Filed)
342kts
Departed: 21-Apr-18 09:43 AM
Arrived: 21-Apr-18 10:25 AM
Distance/Time
Traveled:
95nm/0:42
Distance/Time
To Go:
Arrived

Flight Plot

Page will automatically refresh every two minutes.


Map Options




Map Legend


Flown Route
Filed Route
Departure Airport
Arrival Airport
Navaid (VOR, NDB)
Fix

Horizontal Profiles

Position Reports

Time Latitude Longitude Heading Altitude Ground
Speed
21-Apr-18 09:23 33.825352 -116.509542 90 486ft 0kts
21-Apr-18 09:24 33.825352 -116.509542 90 486ft 0kts
21-Apr-18 09:25 33.825352 -116.509542 90 486ft 0kts
21-Apr-18 09:26 33.825352 -116.509542 90 486ft 0kts
21-Apr-18 09:27 33.825352 -116.509542 90 486ft 0kts
21-Apr-18 09:28 33.825352 -116.509542 90 486ft 0kts
21-Apr-18 09:29 33.825352 -116.509542 90 486ft 0kts
21-Apr-18 09:30 33.825352 -116.509542 90 486ft 0kts
21-Apr-18 09:31 33.825352 -116.509542 90 486ft 0kts
21-Apr-18 09:32 33.825352 -116.509542 90 486ft 0kts
21-Apr-18 09:33 33.825352 -116.509542 90 486ft 0kts
21-Apr-18 09:34 33.825352 -116.509521 91 486ft 0kts
21-Apr-18 09:35 33.825341 -116.507657 89 486ft 0kts
21-Apr-18 09:36 33.825340 -116.505980 111 486ft 12kts
21-Apr-18 09:37 33.821091 -116.502035 146 486ft 21kts
21-Apr-18 09:38 33.818520 -116.498945 87 486ft 0kts
21-Apr-18 09:39 33.818520 -116.498945 87 486ft 0kts
21-Apr-18 09:40 33.818520 -116.498945 87 486ft 0kts
21-Apr-18 09:41 33.818582 -116.498478 62 486ft 11kts
21-Apr-18 09:42 33.830523 -116.508404 323 514ft 161kts
21-Apr-18 09:43 33.870481 -116.545993 321 3231ft 199kts
21-Apr-18 09:44 33.920170 -116.574299 24 5980ft 229kts
21-Apr-18 09:45 33.925109 -116.508782 119 9261ft 233kts
21-Apr-18 09:46 33.894901 -116.435650 73 11222ft 283kts
21-Apr-18 09:47 33.965646 -116.397421 338 12013ft 336kts
21-Apr-18 09:48 34.003851 -116.491198 260 12018ft 349kts
21-Apr-18 09:49 33.986676 -116.604874 259 11998ft 345kts
21-Apr-18 09:50 33.969595 -116.717240 259 12009ft 340kts
21-Apr-18 09:51 33.951637 -116.827011 254 12027ft 336kts
21-Apr-18 09:52 33.938289 -116.933857 280 12034ft 314kts
21-Apr-18 09:53 33.950791 -117.011258 281 12018ft 267kts
21-Apr-18 09:54 33.964788 -117.093411 282 11051ft 253kts
21-Apr-18 09:55 33.978216 -117.173069 282 9922ft 247kts
21-Apr-18 09:56 33.991218 -117.250637 282 8827ft 242kts
21-Apr-18 09:57 34.003773 -117.325920 282 8031ft 224kts
21-Apr-18 09:58 34.014450 -117.390092 282 8054ft 193kts
21-Apr-18 09:59 34.024683 -117.451840 282 8037ft 191kts
21-Apr-18 10:00 34.034805 -117.513252 282 8042ft 193kts
21-Apr-18 10:01 34.045191 -117.576406 282 8040ft 196kts
21-Apr-18 10:02 34.055377 -117.638566 282 8038ft 192kts
21-Apr-18 10:03 34.064372 -117.693468 282 8060ft 200kts
21-Apr-18 10:04 34.070631 -117.762672 284 8042ft 213kts
21-Apr-18 10:05 34.084525 -117.827821 285 8064ft 207kts
21-Apr-18 10:06 34.098955 -117.894336 285 8062ft 210kts
21-Apr-18 10:07 34.112106 -117.955807 285 8053ft 210kts
21-Apr-18 10:08 34.125365 -118.018205 285 8049ft 205kts
21-Apr-18 10:09 34.134597 -118.082142 271 7884ft 204kts
21-Apr-18 10:10 34.135529 -118.145846 271 6515ft 196kts
21-Apr-18 10:11 34.136462 -118.206035 271 6006ft 181kts
21-Apr-18 10:12 34.137347 -118.263241 272 5358ft 192kts
21-Apr-18 10:13 34.138085 -118.323620 272 4020ft 186kts
21-Apr-18 10:14 34.139461 -118.382551 273 4004ft 189kts
21-Apr-18 10:15 34.140824 -118.444408 273 3999ft 193kts
21-Apr-18 10:16 34.142172 -118.507009 272 3997ft 189kts
21-Apr-18 10:17 34.142743 -118.566085 271 3992ft 173kts
21-Apr-18 10:18 34.169887 -118.600460 349 4006ft 169kts
21-Apr-18 10:19 34.200630 -118.569703 89 3413ft 190kts
21-Apr-18 10:20 34.199877 -118.513370 88 2994ft 164kts
21-Apr-18 10:21 34.199013 -118.457125 90 2248ft 174kts
21-Apr-18 10:22 34.198439 -118.406323 89 1429ft 151kts
21-Apr-18 10:23 34.197794 -118.360096 90 786ft 132kts
21-Apr-18 10:24 34.198785 -118.352581 269 785ft 10kts
21-Apr-18 10:25 34.199187 -118.357965 338 785ft 12kts
21-Apr-18 10:26 34.200163 -118.359335 351 785ft 0kts
21-Apr-18 10:27 34.200163 -118.359335 351 785ft 0kts
21-Apr-18 10:28 34.200163 -118.359335 351 785ft 0kts

Navigation Log

Ident Type
1. KPSP Airport
2. PSP Navaid
3. DEWAY Fix
4. ACINS Fix
5. LENHO Fix
6. KNDAL Fix
7. PDZ Navaid
8. POM Navaid
9. COVIN Fix
10. HOPUN Fix
11. ITSME Fix
12. ELMOO Fix
13. PURMS Fix
14. DARTS Fix
15. VNY Navaid
16. KBUR Airport